Time;durP1;ratioP1;P1;durP2;ratioP2;P2;SDS_P1;SDS_P2;PMS_P1;PMS_P2;Temp;Humidity;BMP_temperature;BMP_pressure;BME280_temperature;BME280_humidity;BME280_pressure;Samples;Min_cycle;Max_cycle;Signal;HPM_P1;HPM_P2
2022/12/02 00:02:21;;;;;;;32.25;17.40;;;;;;;4.62;100.00;101026.94;4995269;28;20201;-72
2022/12/02 00:04:55;;;;;;;30.85;18.27;;;;;;;4.70;100.00;101028.59;4995127;28;20192;-74
2022/12/02 00:07:22;;;;;;;34.25;18.45;;;;;;;4.70;100.00;101020.59;5013323;28;20225;-72
2022/12/02 00:09:49;;;;;;;29.90;16.02;;;;;;;4.72;100.00;101016.13;5012099;28;20230;-73
2022/12/02 00:12:20;;;;;;;35.67;17.98;;;;;;;4.66;100.00;101013.56;5022759;28;20200;-73
2022/12/02 00:14:57;;;;;;;29.80;16.85;;;;;;;4.65;100.00;101009.09;5025124;28;20260;-72
2022/12/02 00:17:24;;;;;;;35.60;18.38;;;;;;;4.58;100.00;101010.94;5012034;28;20235;-73
2022/12/02 00:19:52;;;;;;;35.47;17.83;;;;;;;4.60;100.00;101011.81;5023117;28;20214;-71
2022/12/02 00:22:19;;;;;;;33.67;17.42;;;;;;;4.57;100.00;101008.31;5043436;28;20202;-72
2022/12/02 00:24:46;;;;;;;35.90;18.60;;;;;;;4.49;100.00;101011.06;5029360;28;20206;-72
2022/12/02 00:27:13;;;;;;;36.28;17.98;;;;;;;4.46;100.00;101018.22;5022835;28;20218;-71
2022/12/02 00:29:39;;;;;;;34.42;18.45;;;;;;;4.49;100.00;101007.50;5021552;28;20648;-72
2022/12/02 00:32:06;;;;;;;34.58;17.85;;;;;;;4.45;100.00;101019.09;5019501;28;20230;-73
2022/12/02 00:34:33;;;;;;;33.95;18.45;;;;;;;4.41;100.00;101009.34;5016825;28;20205;-72
2022/12/02 00:37:01;;;;;;;34.65;18.13;;;;;;;4.36;100.00;101009.41;5012696;28;20226;-71
2022/12/02 00:39:27;;;;;;;35.95;18.65;;;;;;;4.38;100.00;101008.50;5018825;28;20223;-73
2022/12/02 00:41:54;;;;;;;30.40;17.02;;;;;;;4.42;100.00;101008.47;5021338;28;20199;-72
2022/12/02 00:47:05;;;;;;;33.78;18.40;;;;;;;4.34;100.00;101005.88;5013040;28;20354;-71
2022/12/02 00:49:31;;;;;;;36.50;17.83;;;;;;;4.29;100.00;100999.69;5011994;28;20198;-73
2022/12/02 00:51:57;;;;;;;33.35;17.58;;;;;;;4.31;100.00;101005.91;5012313;28;20207;-73
2022/12/02 00:54:25;;;;;;;33.88;17.13;;;;;;;4.30;100.00;101004.16;5012616;28;20199;-74
2022/12/02 00:56:52;;;;;;;36.65;18.35;;;;;;;4.37;100.00;101001.41;5012552;28;20688;-73
2022/12/02 00:59:18;;;;;;;35.70;18.88;;;;;;;4.34;100.00;100996.13;5013326;28;20228;-73
2022/12/02 01:01:45;;;;;;;41.80;19.58;;;;;;;4.34;100.00;100981.88;5020678;28;20207;-72
2022/12/02 01:04:11;;;;;;;38.17;18.23;;;;;;;4.30;100.00;100983.69;5020191;28;20669;-71
2022/12/02 01:06:38;;;;;;;40.42;18.15;;;;;;;4.35;100.00;100979.19;5012784;28;20265;-72
2022/12/02 01:09:05;;;;;;;36.45;18.05;;;;;;;4.35;100.00;100987.19;5012177;28;20229;-74
2022/12/02 01:11:33;;;;;;;42.03;18.80;;;;;;;4.30;100.00;100974.81;5009936;28;20290;-72
2022/12/02 01:14:00;;;;;;;35.20;17.70;;;;;;;4.32;100.00;100975.66;5020332;28;20287;-73
2022/12/02 01:16:26;;;;;;;36.30;19.83;;;;;;;4.28;100.00;100973.97;5023848;28;20228;-72
2022/12/02 01:18:53;;;;;;;35.70;17.55;;;;;;;4.25;100.00;100974.88;5018043;28;20260;-72
2022/12/02 01:21:22;;;;;;;35.10;17.40;;;;;;;4.25;100.00;100977.53;5015137;28;20202;-72
2022/12/02 01:23:48;;;;;;;37.47;19.23;;;;;;;4.18;100.00;100978.47;5018245;28;20199;-71
2022/12/02 01:26:15;;;;;;;35.00;18.63;;;;;;;4.11;100.00;100982.09;5014458;28;20261;-72
2022/12/02 01:28:43;;;;;;;38.40;18.98;;;;;;;4.11;100.00;100979.44;5018945;28;20202;-74
2022/12/02 01:31:09;;;;;;;34.25;16.67;;;;;;;4.14;100.00;100984.75;5013444;28;20195;-70
2022/12/02 01:33:36;;;;;;;39.25;18.08;;;;;;;4.06;100.00;100990.16;5022945;28;20203;-71
2022/12/02 01:36:02;;;;;;;36.78;18.60;;;;;;;4.13;100.00;100982.97;5015324;28;20221;-71
2022/12/02 01:38:29;;;;;;;39.05;19.00;;;;;;;4.10;100.00;100981.22;5022351;28;20206;-72
2022/12/02 01:40:56;;;;;;;33.13;18.70;;;;;;;4.15;100.00;100981.19;5019855;28;20223;-72
2022/12/02 01:43:22;;;;;;;34.72;19.35;;;;;;;4.09;100.00;100989.22;5017150;28;20305;-72
2022/12/02 01:45:50;;;;;;;37.20;18.40;;;;;;;4.10;100.00;100986.56;5013237;28;20221;-73
2022/12/02 01:48:17;;;;;;;39.95;19.40;;;;;;;4.10;100.00;100991.88;5014632;28;20209;-72
2022/12/02 01:50:44;;;;;;;38.90;17.85;;;;;;;4.09;100.00;100984.81;5019773;28;20547;-75
2022/12/02 01:53:11;;;;;;;34.38;17.75;;;;;;;4.13;100.00;100980.31;5013157;28;20577;-72
2022/12/02 01:55:37;;;;;;;36.53;18.65;;;;;;;4.13;100.00;100988.31;5015221;28;20706;-73
2022/12/02 01:58:04;;;;;;;39.33;19.33;;;;;;;4.11;100.00;100979.44;5017167;28;20206;-72
2022/12/02 02:00:31;;;;;;;37.55;17.85;;;;;;;4.22;100.00;100982.88;5016779;28;20222;-72
2022/12/02 02:02:59;;;;;;;38.17;20.42;;;;;;;4.24;100.00;100978.41;5014408;28;20209;-72
2022/12/02 02:05:28;;;;;;;35.13;17.05;;;;;;;4.24;100.00;100983.75;5016365;28;20247;-72
2022/12/02 02:07:58;;;;;;;33.78;18.45;;;;;;;4.27;100.00;100981.03;5015477;28;20350;-73
2022/12/02 02:10:26;;;;;;;43.67;18.05;;;;;;;4.33;100.00;100981.00;5015408;28;20227;-71
2022/12/02 02:12:53;;;;;;;37.90;17.95;;;;;;;4.39;100.00;100977.38;5016337;28;20199;-72
2022/12/02 02:15:21;;;;;;;39.67;17.80;;;;;;;4.36;100.00;100978.31;5017408;28;20664;-74
2022/12/02 02:17:49;;;;;;;35.85;18.20;;;;;;;4.34;100.00;100971.19;5023744;28;21627;-73
2022/12/02 02:20:20;;;;;;;37.90;18.23;;;;;;;4.37;100.00;100969.41;5023550;28;20203;-73
2022/12/02 02:22:53;;;;;;;37.50;19.30;;;;;;;4.35;100.00;100971.19;5022920;28;20191;-72
2022/12/02 02:25:21;;;;;;;38.10;19.02;;;;;;;4.43;100.00;100962.22;5022739;28;20202;-72
2022/12/02 02:27:52;;;;;;;32.95;18.60;;;;;;;4.41;100.00;100967.59;5019948;28;20688;-71
2022/12/02 02:30:19;;;;;;;35.85;17.80;;;;;;;4.42;100.00;100965.81;5023446;28;20209;-72
2022/12/02 02:32:46;;;;;;;38.38;19.08;;;;;;;4.42;100.00;100966.69;5019142;28;20278;-72
2022/12/02 02:35:13;;;;;;;38.35;20.33;;;;;;;4.41;100.00;100966.69;5011264;28;20194;-71
2022/12/02 02:37:40;;;;;;;39.53;19.05;;;;;;;4.45;100.00;100958.63;5021131;28;20245;-74
2022/12/02 02:40:08;;;;;;;37.97;19.80;;;;;;;4.45;100.00;100957.75;5023400;28;20701;-72
2022/12/02 02:42:36;;;;;;;34.50;18.90;;;;;;;4.35;100.00;100959.66;5017863;28;20202;-72
2022/12/02 02:45:03;;;;;;;37.92;19.40;;;;;;;4.41;100.00;100954.25;5022172;28;20206;-72
2022/12/02 02:47:29;;;;;;;35.67;18.45;;;;;;;4.38;100.00;100957.81;5022167;28;20233;-72
2022/12/02 02:49:57;;;;;;;38.13;19.23;;;;;;;4.45;100.00;100961.28;5023475;28;20297;-71
2022/12/02 02:52:23;;;;;;;41.42;19.65;;;;;;;4.42;100.00;100956.00;5020949;28;20199;-72
2022/12/02 02:54:50;;;;;;;41.30;20.45;;;;;;;4.42;100.00;100955.13;5031938;28;20208;-71
2022/12/02 02:57:16;;;;;;;37.30;19.73;;;;;;;4.44;100.00;100953.34;5021230;28;20585;-71
2022/12/02 02:59:45;;;;;;;37.55;18.35;;;;;;;4.47;100.00;100950.63;5027284;28;20223;-71
2022/12/02 03:02:13;;;;;;;43.28;20.33;;;;;;;4.51;100.00;100947.03;5019712;28;20291;-72
2022/12/02 03:04:40;;;;;;;43.35;20.90;;;;;;;4.49;100.00;100946.16;5022544;28;20683;-72
2022/12/02 03:07:07;;;;;;;39.67;20.40;;;;;;;4.46;100.00;100947.06;5025683;28;20227;-74
2022/12/02 03:09:34;;;;;;;41.67;18.98;;;;;;;4.49;100.00;100936.38;5019728;28;20575;-71
2022/12/02 03:12:02;;;;;;;40.47;20.08;;;;;;;4.38;100.00;100940.94;5028702;28;20197;-72
2022/12/02 03:14:29;;;;;;;34.55;18.45;;;;;;;4.42;100.00;100940.00;5025289;28;20195;-71
2022/12/02 03:17:01;;;;;;;38.92;19.35;;;;;;;4.43;100.00;100923.09;5017917;28;20364;-71
2022/12/02 03:19:28;;;;;;;40.42;19.85;;;;;;;4.44;100.00;100927.53;5022377;28;20209;-74
2022/12/02 03:21:55;;;;;;;43.53;20.00;;;;;;;4.42;100.00;100924.00;5023900;28;20195;-73
2022/12/02 03:24:21;;;;;;;39.75;19.92;;;;;;;4.43;100.00;100930.22;5023054;28;20297;-73
2022/12/02 03:26:48;;;;;;;38.60;18.20;;;;;;;4.47;100.00;100931.94;5011560;28;20762;-72
2022/12/02 03:29:16;;;;;;;36.90;18.15;;;;;;;4.46;100.00;100916.88;5029972;28;20206;-73
2022/12/02 03:31:44;;;;;;;44.35;21.73;;;;;;;4.38;100.00;100916.94;5021475;28;20206;-72
2022/12/02 03:34:12;;;;;;;46.42;20.00;;;;;;;4.47;100.00;100921.28;5024014;28;20202;-73
2022/12/02 03:36:40;;;;;;;38.75;19.45;;;;;;;4.44;100.00;100916.00;5017411;28;20318;-72
2022/12/02 03:39:09;;;;;;;36.90;19.13;;;;;;;4.36;100.00;100913.41;5021090;28;20287;-72
2022/12/02 03:41:35;;;;;;;36.42;19.48;;;;;;;4.41;100.00;100910.69;5019565;28;20239;-71
2022/12/02 03:44:02;;;;;;;40.10;19.08;;;;;;;4.37;100.00;100912.50;5036582;28;20230;-72
2022/12/02 03:46:29;;;;;;;37.83;18.55;;;;;;;4.36;100.00;100916.97;5026339;28;20710;-73
2022/12/02 03:48:58;;;;;;;41.50;19.50;;;;;;;4.33;100.00;100908.13;5012424;28;20207;-74
2022/12/02 03:51:26;;;;;;;39.92;20.23;;;;;;;4.37;100.00;100904.50;5021168;28;20673;-72
2022/12/02 03:53:53;;;;;;;35.80;18.15;;;;;;;4.44;100.00;100913.31;5016580;28;20219;-72
2022/12/02 03:56:20;;;;;;;37.28;18.92;;;;;;;4.44;100.00;100908.00;5014430;28;20631;-73
2022/12/02 03:58:49;;;;;;;39.05;19.50;;;;;;;4.45;100.00;100901.75;5015128;28;20215;-75
2022/12/02 04:01:16;;;;;;;33.63;18.15;;;;;;;4.43;100.00;100904.41;5015628;28;20219;-72
2022/12/02 04:03:43;;;;;;;37.97;20.33;;;;;;;4.42;100.00;100901.78;5015186;28;20601;-72
2022/12/02 04:06:10;;;;;;;36.80;18.40;;;;;;;4.33;100.00;100902.78;5014715;28;20246;-71
2022/12/02 04:08:39;;;;;;;40.72;19.38;;;;;;;4.34;100.00;100894.78;5014353;28;20286;-72
2022/12/02 04:11:06;;;;;;;37.58;19.02;;;;;;;4.51;100.00;100891.00;5014403;28;20243;-72
2022/12/02 04:13:33;;;;;;;34.33;18.42;;;;;;;4.43;100.00;100891.09;5014702;28;20199;-74
2022/12/02 04:16:00;;;;;;;34.78;18.23;;;;;;;4.43;100.00;100892.88;5025077;28;20727;-71
2022/12/02 04:18:26;;;;;;;36.05;17.90;;;;;;;4.41;100.00;100895.59;5019002;28;20210;-73
2022/12/02 04:20:53;;;;;;;34.97;17.58;;;;;;;4.37;100.00;100889.38;5019757;28;20290;-75
2022/12/02 04:23:20;;;;;;;40.28;20.13;;;;;;;4.45;100.00;100883.94;5039641;28;20222;-72
2022/12/02 04:25:47;;;;;;;33.85;17.83;;;;;;;4.41;100.00;100878.66;5028790;28;20226;-72
2022/12/02 04:28:14;;;;;;;38.53;19.30;;;;;;;4.41;100.00;100879.59;5026375;28;20213;-72
2022/12/02 04:30:40;;;;;;;43.88;19.38;;;;;;;4.42;100.00;100875.13;5017266;28;20281;-73
2022/12/02 04:33:07;;;;;;;36.85;18.98;;;;;;;4.42;100.00;100872.44;5024753;28;20563;-74
2022/12/02 04:35:34;;;;;;;36.45;18.15;;;;;;;4.35;100.00;100869.84;5024032;28;20209;-72
2022/12/02 04:38:00;;;;;;;36.83;18.58;;;;;;;4.39;100.00;100868.03;5026054;28;20198;-71
2022/12/02 04:40:27;;;;;;;35.63;17.67;;;;;;;4.45;100.00;100869.72;5023038;28;20254;-72
2022/12/02 04:42:55;;;;;;;32.80;19.00;;;;;;;4.49;100.00;100869.69;5023215;28;20285;-73
2022/12/02 04:45:21;;;;;;;40.85;19.10;;;;;;;4.42;100.00;100869.78;5019509;28;20235;-73
2022/12/02 04:47:48;;;;;;;37.03;19.50;;;;;;;4.33;100.00;100877.00;5010644;28;20237;-73
2022/12/02 04:50:15;;;;;;;41.38;19.83;;;;;;;4.30;100.00;100865.50;5016680;28;20205;-73
2022/12/02 04:52:41;;;;;;;43.92;19.80;;;;;;;4.28;100.00;100868.16;5019888;28;20198;-72
2022/12/02 04:55:08;;;;;;;40.97;21.20;;;;;;;4.29;100.00;100864.59;5013991;28;20206;-71
2022/12/02 04:57:35;;;;;;;37.35;18.80;;;;;;;4.32;100.00;100853.00;5023101;28;20717;-71
2022/12/02 05:00:04;;;;;;;43.50;20.73;;;;;;;4.32;100.00;100867.22;5016364;28;20233;-72
2022/12/02 05:02:31;;;;;;;42.63;19.33;;;;;;;4.40;100.00;100856.47;5005925;28;20198;-73
2022/12/02 05:04:57;;;;;;;37.28;20.05;;;;;;;4.37;100.00;100861.84;5017200;28;20731;-73
2022/12/02 05:07:24;;;;;;;35.33;18.75;;;;;;;4.31;100.00;100857.44;5021364;28;20241;-70
2022/12/02 05:09:50;;;;;;;32.85;17.63;;;;;;;4.28;100.00;100864.63;5025498;28;20270;-73
2022/12/02 05:12:17;;;;;;;42.03;18.40;;;;;;;4.26;100.00;100856.63;5031932;28;20202;-72
2022/12/02 05:14:45;;;;;;;34.55;18.60;;;;;;;4.34;100.00;100854.78;5039811;28;20207;-73
2022/12/02 05:17:13;;;;;;;37.85;19.48;;;;;;;4.27;100.00;100853.06;5029100;28;20222;-71
2022/12/02 05:19:39;;;;;;;33.25;18.40;;;;;;;4.28;100.00;100861.97;5015180;28;20208;-74
2022/12/02 05:22:06;;;;;;;39.67;19.73;;;;;;;4.22;100.00;100862.91;5013096;28;20211;-72
2022/12/02 05:24:32;;;;;;;39.20;18.80;;;;;;;4.23;100.00;100851.34;5014631;28;20209;-71
2022/12/02 05:26:59;;;;;;;37.10;20.05;;;;;;;4.23;100.00;100853.09;5023228;28;20222;-72
2022/12/02 05:29:25;;;;;;;37.45;19.25;;;;;;;4.21;100.00;100853.16;5014644;28;20572;-74
2022/12/02 05:31:52;;;;;;;36.15;19.08;;;;;;;4.28;100.00;100853.97;5012762;28;20194;-70
2022/12/02 05:34:20;;;;;;;36.75;19.10;;;;;;;4.26;100.00;100845.97;5015142;28;20202;-72
2022/12/02 05:36:47;;;;;;;38.75;19.85;;;;;;;4.21;100.00;100854.94;5019091;28;20306;-73
2022/12/02 05:39:13;;;;;;;36.20;17.77;;;;;;;4.12;100.00;100853.25;5010857;28;20200;-72
2022/12/02 05:41:40;;;;;;;33.53;16.67;;;;;;;4.25;100.00;100853.97;5011154;28;20576;-75
2022/12/02 05:44:18;;;;;;;33.30;16.70;;;;;;;4.16;100.00;100853.22;5006815;28;20207;-73
2022/12/02 05:46:45;;;;;;;37.67;19.20;;;;;;;4.15;100.00;100855.88;5018370;28;20261;-74
2022/12/02 05:49:15;;;;;;;40.00;19.27;;;;;;;4.15;100.00;100861.22;5012236;28;20282;-73
2022/12/02 05:51:42;;;;;;;37.03;18.38;;;;;;;4.12;100.00;100855.94;5024476;28;20731;-73
2022/12/02 05:54:17;;;;;;;41.83;20.58;;;;;;;4.01;100.00;100856.03;5022595;28;20198;-75
2022/12/02 05:56:44;;;;;;;38.10;18.90;;;;;;;4.03;100.00;100858.69;5023902;28;20584;-73
2022/12/02 05:59:14;;;;;;;39.00;20.27;;;;;;;4.04;100.00;100857.78;5008361;28;20682;-74
2022/12/02 06:01:41;;;;;;;39.90;19.00;;;;;;;4.09;100.00;100858.59;5001637;28;20210;-74
2022/12/02 06:04:13;;;;;;;42.17;20.20;;;;;;;4.03;100.00;100861.38;5033693;28;20201;-71
2022/12/02 06:06:40;;;;;;;39.20;19.75;;;;;;;4.01;100.00;100864.03;5022254;28;20235;-74
2022/12/02 06:09:14;;;;;;;40.72;19.52;;;;;;;4.03;100.00;100867.56;5029143;28;20207;-74
2022/12/02 06:11:41;;;;;;;36.58;19.02;;;;;;;3.97;100.00;100863.19;5031911;28;20810;-73
2022/12/02 06:14:15;;;;;;;37.88;18.67;;;;;;;3.95;100.00;100867.63;5037119;28;20186;-74
2022/12/02 06:16:45;;;;;;;35.20;18.73;;;;;;;3.96;100.00;100865.88;5028966;28;20219;-73
2022/12/02 06:19:22;;;;;;;34.20;18.80;;;;;;;3.93;100.00;100869.47;5025953;28;20248;-73
2022/12/02 06:21:48;;;;;;;32.90;17.63;;;;;;;3.97;100.00;100856.97;5010959;28;20214;-75
2022/12/02 06:24:16;;;;;;;32.53;17.13;;;;;;;3.94;100.00;100860.56;5010787;28;20580;-74
2022/12/02 06:26:43;;;;;;;33.70;17.00;;;;;;;3.93;100.00;100858.81;5024944;28;20222;-76
2022/12/02 06:29:15;;;;;;;35.30;17.40;;;;;;;3.86;100.00;100870.41;5031130;28;20210;-76
2022/12/02 06:31:43;;;;;;;35.30;17.80;;;;;;;3.82;100.00;100860.69;5031254;28;20185;-75
2022/12/02 06:34:26;;;;;;;34.05;17.85;;;;;;;3.90;100.00;100866.81;5032082;28;20634;-74
2022/12/02 06:36:52;;;;;;;36.05;17.15;;;;;;;3.85;100.00;100863.31;5032161;28;20712;-75
2022/12/02 06:39:22;;;;;;;28.65;16.30;;;;;;;3.76;100.00;100866.97;5030474;28;20220;-74
2022/12/02 06:41:50;;;;;;;29.75;16.70;;;;;;;3.78;100.00;100861.63;5034749;28;20771;-76
2022/12/02 06:47:46;;;;;;;35.45;17.38;;;;;;;3.72;100.00;100875.88;5037920;28;20761;-74
2022/12/02 06:50:25;;;;;;;29.52;16.35;;;;;;;3.72;100.00;100856.34;5039019;28;20197;-74
2022/12/02 06:52:52;;;;;;;32.03;17.35;;;;;;;3.82;100.00;100867.78;5039006;28;20237;-75
2022/12/02 06:55:31;;;;;;;32.38;16.38;;;;;;;3.78;100.00;100860.72;5039490;28;20212;-75
2022/12/02 06:58:05;;;;;;;28.48;15.90;;;;;;;3.81;100.00;100860.72;5037348;28;20221;-74
2022/12/02 07:00:32;;;;;;;28.65;15.48;;;;;;;3.77;100.00;100862.50;5037951;28;20273;-75
2022/12/02 07:02:59;;;;;;;31.77;17.05;;;;;;;3.74;100.00;100860.75;5038023;28;20220;-74
2022/12/02 07:05:25;;;;;;;31.75;17.17;;;;;;;3.79;100.00;100860.72;5038047;28;20206;-74
2022/12/02 07:07:52;;;;;;;32.85;15.38;;;;;;;3.68;100.00;100873.25;5038731;28;20313;-74
2022/12/02 07:10:21;;;;;;;23.38;14.02;;;;;;;3.71;100.00;100860.81;5025942;28;20242;-76
2022/12/02 07:12:49;;;;;;;32.03;16.30;;;;;;;3.78;100.00;100855.38;5017944;28;20317;-75
2022/12/02 07:15:25;;;;;;;27.45;16.38;;;;;;;3.74;100.00;100860.75;5018574;28;20203;-74
2022/12/02 07:17:53;;;;;;;27.30;15.43;;;;;;;3.71;100.00;100857.25;5018012;28;20226;-75
2022/12/02 07:20:31;;;;;;;26.60;16.42;;;;;;;3.63;100.00;100861.78;5017064;28;20206;-76
2022/12/02 07:23:00;;;;;;;28.35;14.75;;;;;;;3.64;100.00;100863.53;5015588;28;20291;-74
2022/12/02 07:25:37;;;;;;;24.15;14.13;;;;;;;3.69;100.00;100857.25;5014634;28;20202;-74
2022/12/02 07:28:25;;;;;;;24.23;14.35;;;;;;;3.71;100.00;100862.59;5014799;28;20198;-74
2022/12/02 07:30:58;;;;;;;25.80;15.70;;;;;;;3.74;100.00;100857.22;5014546;28;20182;-75
2022/12/02 07:33:25;;;;;;;28.10;15.32;;;;;;;3.73;100.00;100855.44;5014512;28;20199;-75
2022/12/02 07:35:51;;;;;;;27.55;14.65;;;;;;;3.67;100.00;100847.53;5016493;28;20213;-74
2022/12/02 07:38:18;;;;;;;23.90;14.57;;;;;;;3.62;100.00;100854.66;5019280;28;20206;-74
2022/12/02 07:40:44;;;;;;;26.83;15.45;;;;;;;3.65;100.00;100854.66;5022119;28;20324;-76
2022/12/02 07:43:12;;;;;;;27.63;15.88;;;;;;;3.61;100.00;100858.22;5022370;28;20212;-74
2022/12/02 07:45:39;;;;;;;29.95;16.00;;;;;;;3.59;100.00;100860.03;5018421;28;20213;-74
2022/12/02 07:48:06;;;;;;;25.30;15.77;;;;;;;3.57;100.00;100868.03;5018679;28;20210;-77
2022/12/02 07:50:33;;;;;;;24.42;14.18;;;;;;;3.67;100.00;100858.19;5017406;28;20271;-76
2022/12/02 07:52:59;;;;;;;26.33;14.57;;;;;;;3.71;100.00;100858.13;5018079;28;20691;-75
2022/12/02 07:55:26;;;;;;;26.83;16.52;;;;;;;3.74;100.00;100846.56;5018698;28;20305;-76
2022/12/02 07:57:53;;;;;;;26.02;14.75;;;;;;;3.75;100.00;100856.31;5015362;28;20605;-74
2022/12/02 08:00:23;;;;;;;24.95;14.90;;;;;;;3.70;100.00;100864.34;5019086;28;20207;-74
2022/12/02 08:02:49;;;;;;;25.63;14.93;;;;;;;3.80;100.00;100864.25;5020160;28;20223;-74
2022/12/02 08:05:16;;;;;;;27.60;14.57;;;;;;;3.80;100.00;100856.25;5016301;28;20271;-73
2022/12/02 08:07:43;;;;;;;26.70;14.30;;;;;;;3.83;100.00;100854.47;5014539;28;20654;-73
2022/12/02 08:10:10;;;;;;;25.00;15.30;;;;;;;3.84;100.00;100861.53;5015841;28;20691;-74
2022/12/02 08:12:37;;;;;;;24.55;15.05;;;;;;;3.76;100.00;100855.44;5018853;28;20644;-76
2022/12/02 08:15:05;;;;;;;24.33;13.60;;;;;;;3.66;100.00;100856.41;5016977;28;20206;-74
2022/12/02 08:17:33;;;;;;;21.80;13.23;;;;;;;3.55;100.00;100854.75;5022911;28;20224;-74
2022/12/02 08:19:59;;;;;;;21.30;13.07;;;;;;;3.49;100.00;100856.56;5021065;28;20556;-74
2022/12/02 08:22:26;;;;;;;24.02;13.32;;;;;;;3.48;100.00;100860.13;5024252;28;20222;-76
2022/12/02 08:24:54;;;;;;;21.95;14.13;;;;;;;3.49;100.00;100860.13;5019726;28;20206;-75
2022/12/02 08:27:21;;;;;;;24.42;13.40;;;;;;;3.50;100.00;100856.53;5031959;28;20282;-75
2022/12/02 08:29:48;;;;;;;24.85;14.48;;;;;;;3.58;100.00;100860.94;5032501;28;20234;-74
2022/12/02 08:32:15;;;;;;;23.58;13.48;;;;;;;3.62;100.00;100866.22;5028253;28;20199;-75
2022/12/02 08:34:43;;;;;;;22.67;14.13;;;;;;;3.57;100.00;100860.03;5016390;28;20198;-75
2022/12/02 08:37:11;;;;;;;22.08;13.10;;;;;;;3.65;100.00;100859.97;5019645;28;20269;-73
2022/12/02 08:39:38;;;;;;;24.17;13.68;;;;;;;3.70;100.00;100852.81;5019817;28;20203;-74
2022/12/02 08:42:05;;;;;;;19.48;12.70;;;;;;;3.72;100.00;100859.00;5017276;28;20322;-74
2022/12/02 08:44:32;;;;;;;26.00;14.70;;;;;;;3.79;100.00;100859.84;5016379;28;20202;-74
2022/12/02 08:46:59;;;;;;;26.33;15.82;;;;;;;3.78;100.00;100855.38;5018092;28;20305;-75
2022/12/02 08:49:26;;;;;;;23.50;14.25;;;;;;;3.77;100.00;100854.50;5015890;28;20629;-74
2022/12/02 08:51:54;;;;;;;23.10;13.95;;;;;;;3.83;100.00;100853.59;5023577;28;20293;-75
2022/12/02 08:54:21;;;;;;;19.40;13.07;;;;;;;3.76;100.00;100863.41;5023525;28;20273;-75
2022/12/02 08:56:48;;;;;;;28.45;16.30;;;;;;;3.73;100.00;100860.75;5024328;28;20619;-73
2022/12/02 08:59:14;;;;;;;21.35;12.82;;;;;;;3.78;100.00;100858.06;5021533;28;20620;-75
2022/12/02 09:01:41;;;;;;;22.30;14.35;;;;;;;3.72;100.00;100851.91;5017065;28;20218;-75
2022/12/02 09:04:07;;;;;;;21.58;13.05;;;;;;;3.74;100.00;100857.22;5015421;28;20198;-74
2022/12/02 09:06:34;;;;;;;22.17;14.35;;;;;;;3.71;100.00;100858.13;5017459;28;20230;-75
2022/12/02 09:09:02;;;;;;;23.85;13.60;;;;;;;3.67;100.00;100863.50;5015708;28;20198;-75
2022/12/02 09:11:29;;;;;;;22.52;13.73;;;;;;;3.63;100.00;100853.78;5016836;28;20640;-76
2022/12/02 09:13:55;;;;;;;21.85;14.07;;;;;;;3.72;100.00;100851.91;5014068;28;20285;-73
2022/12/02 09:16:22;;;;;;;24.60;13.98;;;;;;;3.78;100.00;100858.97;5012578;28;20219;-73
2022/12/02 09:18:49;;;;;;;22.77;13.52;;;;;;;3.82;100.00;100860.69;5012275;28;20206;-75
2022/12/02 09:21:15;;;;;;;23.58;12.43;;;;;;;3.85;100.00;100850.00;5012842;28;20607;-73
2022/12/02 09:23:42;;;;;;;23.15;13.40;;;;;;;4.02;100.00;100854.25;5012452;28;20249;-75
2022/12/02 09:26:10;;;;;;;22.17;13.55;;;;;;;3.96;100.00;100861.44;5012800;28;20227;-73
2022/12/02 09:28:37;;;;;;;23.75;13.65;;;;;;;4.02;100.00;100854.25;5012217;28;20198;-73
2022/12/02 09:31:03;;;;;;;21.20;12.77;;;;;;;3.88;100.00;100857.94;5012312;28;20210;-73
2022/12/02 09:33:30;;;;;;;24.55;15.13;;;;;;;4.01;100.00;100853.38;5012749;28;20226;-74
2022/12/02 09:35:56;;;;;;;21.20;13.43;;;;;;;3.96;100.00;100848.09;5014683;28;20222;-75
2022/12/02 09:38:23;;;;;;;22.58;14.00;;;;;;;3.95;100.00;100851.66;5015183;28;20225;-73
2022/12/02 09:40:50;;;;;;;21.08;13.48;;;;;;;3.94;100.00;100847.22;5015643;28;20580;-75
2022/12/02 09:43:18;;;;;;;24.05;14.27;;;;;;;4.06;100.00;100850.66;5011839;28;20313;-74
2022/12/02 09:45:44;;;;;;;21.80;13.50;;;;;;;4.06;100.00;100848.00;5012982;28;20206;-74
2022/12/02 09:48:12;;;;;;;24.88;14.02;;;;;;;4.14;100.00;100846.13;5013637;28;20213;-75
2022/12/02 09:50:39;;;;;;;22.20;12.43;;;;;;;4.05;100.00;100848.88;5013610;28;20289;-74
2022/12/02 09:53:07;;;;;;;20.63;12.63;;;;;;;4.24;100.00;100844.22;5012975;28;20202;-74
2022/12/02 09:55:36;;;;;;;20.30;12.00;;;;;;;4.20;100.00;100845.16;5012671;28;20228;-73
2022/12/02 09:58:11;;;;;;;21.20;14.55;;;;;;;3.85;100.00;100841.13;5011733;28;20370;-75
2022/12/02 10:00:39;;;;;;;25.05;15.43;;;;;;;3.87;100.00;100840.22;5012488;28;20266;-76
2022/12/02 10:03:07;;;;;;;21.42;12.90;;;;;;;3.94;100.00;100846.34;5012389;28;20222;-76
2022/12/02 10:05:35;;;;;;;21.50;12.57;;;;;;;4.07;100.00;100853.31;5011664;28;20203;-74
2022/12/02 10:08:02;;;;;;;22.15;13.13;;;;;;;4.04;100.00;100842.66;5011339;28;20210;-75
2022/12/02 10:10:35;;;;;;;21.52;13.40;;;;;;;3.97;100.00;100836.53;5011852;28;20199;-73
2022/12/02 10:13:02;;;;;;;24.02;13.10;;;;;;;4.05;100.00;100835.56;5012040;28;20208;-74
2022/12/02 10:15:30;;;;;;;19.85;13.05;;;;;;;3.96;100.00;100839.22;5012315;28;20207;-74
2022/12/02 10:18:03;;;;;;;22.38;13.20;;;;;;;3.97;100.00;100838.31;5014887;28;20230;-73
2022/12/02 10:20:29;;;;;;;22.13;12.70;;;;;;;4.02;100.00;100838.25;5015432;28;20685;-74
2022/12/02 10:23:09;;;;;;;21.80;12.95;;;;;;;3.96;100.00;100828.56;5015689;28;20321;-73
2022/12/02 10:25:36;;;;;;;24.30;14.05;;;;;;;3.78;100.00;100829.66;5017694;28;20205;-73
2022/12/02 10:28:04;;;;;;;20.85;12.82;;;;;;;3.66;100.00;100835.97;5016847;28;20210;-73
2022/12/02 10:30:31;;;;;;;20.50;12.73;;;;;;;3.84;100.00;100828.69;5017373;28;20291;-74
2022/12/02 10:33:03;;;;;;;23.33;13.68;;;;;;;3.82;100.00;100823.41;5015532;28;20286;-72
2022/12/02 10:35:44;;;;;;;22.92;13.80;;;;;;;3.85;100.00;100825.13;5015615;28;20217;-74
2022/12/02 10:38:28;;;;;;;20.52;13.25;;;;;;;3.85;100.00;100819.81;5016147;28;20190;-75
2022/12/02 10:41:21;;;;;;;18.70;11.95;;;;;;;3.94;100.00;100817.91;5018216;28;20336;-75
2022/12/02 10:44:03;;;;;;;18.60;12.40;;;;;;;4.05;100.00;100815.13;5016657;28;20206;-73
2022/12/02 10:46:30;;;;;;;22.02;12.77;;;;;;;4.04;100.00;100820.47;5016998;28;20219;-75
2022/12/02 10:49:14;;;;;;;22.15;12.63;;;;;;;4.02;100.00;100817.81;5017836;28;20231;-74
2022/12/02 10:51:41;;;;;;;19.73;12.75;;;;;;;4.05;100.00;100812.47;5019109;28;20198;-75
2022/12/02 10:54:20;;;;;;;19.13;12.50;;;;;;;3.99;100.00;100807.19;5017953;28;20372;-76
2022/12/02 10:56:46;;;;;;;22.75;12.80;;;;;;;3.90;100.00;100802.84;5016526;28;20233;-74
2022/12/02 10:59:15;;;;;;;21.20;13.75;;;;;;;3.90;100.00;100804.66;5015368;28;20204;-75
2022/12/02 11:01:43;;;;;;;25.70;14.18;;;;;;;3.89;100.00;100811.75;5015470;28;20537;-74
2022/12/02 11:04:14;;;;;;;19.38;12.90;;;;;;;3.90;100.00;100805.53;5015295;28;20316;-74
2022/12/02 11:06:41;;;;;;;20.92;12.75;;;;;;;3.91;100.00;100801.06;5015629;28;20313;-72
2022/12/02 11:09:08;;;;;;;22.05;13.55;;;;;;;3.98;100.00;100802.78;5018707;28;20665;-75
2022/12/02 11:11:40;;;;;;;20.15;12.30;;;;;;;4.07;100.00;100793.78;5018115;28;20208;-74
2022/12/02 11:14:11;;;;;;;22.73;13.50;;;;;;;4.02;100.00;100798.28;5017115;28;20227;-76
2022/12/02 11:16:46;;;;;;;20.05;13.02;;;;;;;4.13;100.00;100786.56;5015548;28;20247;-74
2022/12/02 11:19:47;;;;;;;20.85;12.57;;;;;;;4.09;100.00;100787.53;5015068;28;20242;-74
2022/12/02 11:23:07;;;;;;;19.80;11.85;;;;;;;4.06;100.00;100776.03;4993059;28;20219;-73